createdAt,value
2023-02-11T00:02:31.269Z,43.95
2023-02-11T00:05:03.066Z,49.83
2023-02-11T00:07:34.384Z,39.00
2023-02-11T00:10:09.561Z,40.03
2023-02-11T00:12:40.098Z,40.45
2023-02-11T00:15:11.162Z,44.85
2023-02-11T00:17:44.251Z,42.80
2023-02-11T00:20:14.094Z,36.53
2023-02-11T00:22:43.943Z,35.20
2023-02-11T00:25:13.565Z,42.35
2023-02-11T00:27:43.104Z,45.47
2023-02-11T00:30:14.229Z,45.38
2023-02-11T00:32:44.352Z,56.30
2023-02-11T00:35:14.076Z,44.80
2023-02-11T00:37:43.793Z,38.70
2023-02-11T00:40:14.316Z,40.85
2023-02-11T00:42:44.446Z,41.85
2023-02-11T00:45:14.557Z,36.42
2023-02-11T00:47:44.197Z,40.10
2023-02-11T00:50:13.904Z,40.15
2023-02-11T00:52:43.789Z,41.40
2023-02-11T00:55:13.470Z,42.47
2023-02-11T00:57:43.346Z,41.58
2023-02-11T01:00:15.622Z,42.63
2023-02-11T01:02:45.342Z,44.80
2023-02-11T01:05:15.020Z,41.97
2023-02-11T01:07:44.754Z,40.63
2023-02-11T01:10:14.811Z,42.97
2023-02-11T01:12:44.420Z,41.15
2023-02-11T01:15:17.529Z,41.50
2023-02-11T01:17:47.607Z,39.90
2023-02-11T01:20:20.949Z,39.83
2023-02-11T01:22:50.552Z,46.20
2023-02-11T01:25:20.554Z,52.10
2023-02-11T01:27:50.257Z,48.28
2023-02-11T01:30:19.942Z,41.97
2023-02-11T01:32:49.522Z,41.90
2023-02-11T01:35:19.314Z,56.40
2023-02-11T01:37:49.000Z,42.60
2023-02-11T01:40:19.890Z,44.90
2023-02-11T01:42:51.048Z,57.42
2023-02-11T01:46:00.025Z,40.67
2023-02-11T01:48:40.148Z,40.92
2023-02-11T01:51:14.990Z,38.20
2023-02-11T01:54:05.576Z,43.70
2023-02-11T01:56:57.995Z,39.50
2023-02-11T01:59:33.835Z,37.22
2023-02-11T02:02:10.507Z,38.00
2023-02-11T02:05:02.630Z,39.28
2023-02-11T02:07:50.787Z,43.00
2023-02-11T02:10:25.992Z,40.55
2023-02-11T02:12:55.843Z,32.83
2023-02-11T02:15:39.221Z,34.30
2023-02-11T02:18:34.513Z,33.25
2023-02-11T02:21:43.342Z,28.58
2023-02-11T02:24:50.107Z,25.88
2023-02-11T02:27:46.615Z,28.57
2023-02-11T02:30:55.552Z,23.88
2023-02-11T02:33:48.146Z,25.55
2023-02-11T02:36:45.180Z,24.90
2023-02-11T02:39:28.573Z,28.27
2023-02-11T02:41:59.719Z,31.35
2023-02-11T02:44:30.293Z,23.13
2023-02-11T02:47:00.259Z,25.05
2023-02-11T02:49:29.994Z,27.17
2023-02-11T02:52:38.644Z,28.75
2023-02-11T02:55:43.068Z,28.98
2023-02-11T02:58:38.829Z,20.92
2023-02-11T03:01:41.357Z,22.45
2023-02-11T03:04:40.000Z,20.98
2023-02-11T03:07:29.801Z,24.40
2023-02-11T03:10:11.384Z,26.77
2023-02-11T03:12:43.377Z,25.40
2023-02-11T03:15:15.043Z,23.25
2023-02-11T03:17:50.742Z,23.42
2023-02-11T03:20:23.689Z,21.90
2023-02-11T03:23:14.963Z,27.45
2023-02-11T03:25:53.612Z,24.58
2023-02-11T03:29:02.550Z,24.02
2023-02-11T03:32:00.838Z,23.00
2023-02-11T03:34:55.045Z,27.80
2023-02-11T03:37:30.278Z,20.80
2023-02-11T03:40:08.740Z,24.27
2023-02-11T03:42:50.907Z,26.83
2023-02-11T03:45:23.581Z,24.45
2023-02-11T03:48:04.346Z,24.95
2023-02-11T03:50:37.101Z,24.15
2023-02-11T03:53:07.898Z,27.00
2023-02-11T03:55:42.039Z,25.85
2023-02-11T03:58:12.049Z,27.75
2023-02-11T04:00:44.472Z,23.85
2023-02-11T04:03:15.414Z,22.80
2023-02-11T04:05:45.858Z,28.67
2023-02-11T04:08:16.118Z,23.35
2023-02-11T04:10:45.730Z,23.83
2023-02-11T04:13:15.997Z,20.58
2023-02-11T04:15:47.806Z,22.35
2023-02-11T04:18:18.473Z,23.48
2023-02-11T04:20:48.550Z,20.48
2023-02-11T04:23:18.199Z,22.95
2023-02-11T04:25:48.091Z,25.73
2023-02-11T04:28:18.027Z,22.25
2023-02-11T04:30:47.809Z,28.30
2023-02-11T04:33:17.635Z,24.05
2023-02-11T04:35:47.959Z,22.63
2023-02-11T04:38:17.708Z,25.10
2023-02-11T04:40:47.461Z,19.70
2023-02-11T04:43:17.099Z,24.10
2023-02-11T04:45:46.799Z,30.50
2023-02-11T04:48:16.518Z,30.27
2023-02-11T04:50:46.246Z,22.08
2023-02-11T04:53:15.833Z,25.85
2023-02-11T04:55:45.599Z,21.35
2023-02-11T04:58:15.312Z,22.88
2023-02-11T05:00:45.128Z,33.67
2023-02-11T05:03:15.252Z,24.20
2023-02-11T05:05:45.431Z,24.20
2023-02-11T05:08:15.862Z,20.67
2023-02-11T05:10:49.775Z,23.45
2023-02-11T05:13:19.402Z,25.27
2023-02-11T05:15:49.413Z,21.55
2023-02-11T05:18:19.243Z,21.45
2023-02-11T05:20:49.170Z,21.05
2023-02-11T05:23:18.909Z,25.35
2023-02-11T05:25:48.763Z,26.73
2023-02-11T05:28:18.807Z,26.52
2023-02-11T05:30:48.611Z,22.98
2023-02-11T05:33:18.529Z,27.27
2023-02-11T05:35:48.474Z,21.00
2023-02-11T05:38:18.650Z,18.08
2023-02-11T05:40:48.272Z,24.70
2023-02-11T05:43:17.958Z,21.70
2023-02-11T05:45:47.615Z,21.70
2023-02-11T05:48:17.361Z,21.77
2023-02-11T05:50:47.450Z,32.15
2023-02-11T05:53:17.383Z,22.60
2023-02-11T05:55:47.340Z,19.67
2023-02-11T05:58:17.071Z,22.80
2023-02-11T06:00:46.805Z,23.50
2023-02-11T06:03:16.569Z,20.60
2023-02-11T06:05:47.607Z,23.77
2023-02-11T06:08:18.080Z,24.73
2023-02-11T06:10:48.590Z,24.38
2023-02-11T06:13:20.326Z,20.23
2023-02-11T06:16:02.083Z,18.60
2023-02-11T06:18:32.459Z,21.67
2023-02-11T06:21:02.770Z,21.00
2023-02-11T06:23:32.379Z,20.25
2023-02-11T06:26:10.058Z,16.00
2023-02-11T06:31:12.110Z,19.30
2023-02-11T06:33:42.435Z,18.88
2023-02-11T06:36:22.504Z,21.80
2023-02-11T06:38:53.114Z,19.33
2023-02-11T06:41:23.124Z,19.45
2023-02-11T06:43:54.436Z,20.08
2023-02-11T06:46:24.318Z,21.20
2023-02-11T06:48:54.081Z,18.23
2023-02-11T06:51:23.815Z,20.88
2023-02-11T06:53:53.470Z,16.00
2023-02-11T06:56:28.957Z,15.77
2023-02-11T06:58:59.036Z,18.58
2023-02-11T07:01:29.887Z,19.00
2023-02-11T07:03:59.820Z,16.90
2023-02-11T07:06:30.073Z,16.15
2023-02-11T07:09:00.372Z,18.00
2023-02-11T07:11:31.558Z,15.60
2023-02-11T07:14:07.182Z,15.63
2023-02-11T07:16:37.559Z,19.30
2023-02-11T07:19:07.308Z,19.58
2023-02-11T07:21:37.679Z,17.10
2023-02-11T07:24:11.760Z,20.95
2023-02-11T07:26:41.708Z,18.92
2023-02-11T07:29:11.402Z,17.83
2023-02-11T07:31:41.215Z,15.55
2023-02-11T07:34:12.502Z,24.38
2023-02-11T07:36:42.282Z,18.88
2023-02-11T07:39:11.972Z,18.08
2023-02-11T07:41:43.300Z,16.55
2023-02-11T07:44:12.942Z,18.58
2023-02-11T07:46:44.851Z,18.63
2023-02-11T07:49:14.864Z,16.08
2023-02-11T07:51:44.577Z,15.98
2023-02-11T07:54:14.409Z,17.48
2023-02-11T07:56:44.103Z,16.88
2023-02-11T07:59:14.024Z,18.27
2023-02-11T08:01:43.971Z,16.90
2023-02-11T08:04:13.701Z,18.40
2023-02-11T08:06:44.935Z,14.50
2023-02-11T08:09:21.304Z,19.33
2023-02-11T08:11:51.270Z,15.32
2023-02-11T08:14:22.212Z,15.32
2023-02-11T08:16:52.025Z,15.60
2023-02-11T08:19:21.699Z,18.48
2023-02-11T08:21:51.312Z,19.33
2023-02-11T08:24:21.056Z,15.50
2023-02-11T08:26:51.056Z,16.88
2023-02-11T08:29:20.820Z,18.48
2023-02-11T08:31:50.980Z,19.02
2023-02-11T08:34:20.885Z,18.52
2023-02-11T08:36:51.116Z,21.05
2023-02-11T08:39:24.312Z,15.55
2023-02-11T08:41:56.182Z,18.65
2023-02-11T08:44:26.370Z,19.08
2023-02-11T08:46:56.596Z,17.25
2023-02-11T08:49:26.274Z,20.08
2023-02-11T08:51:57.910Z,18.52
2023-02-11T08:54:27.598Z,17.88
2023-02-11T08:56:57.436Z,18.23
2023-02-11T08:59:27.166Z,16.67
2023-02-11T09:01:56.828Z,16.17
2023-02-11T09:04:26.546Z,15.95
2023-02-11T09:06:56.554Z,21.50
2023-02-11T09:09:27.001Z,18.95
2023-02-11T09:11:58.892Z,15.07
2023-02-11T09:14:29.216Z,17.23
2023-02-11T09:16:59.253Z,15.98
2023-02-11T09:19:29.067Z,17.75
2023-02-11T09:21:58.960Z,14.02
2023-02-11T09:24:28.668Z,14.63
2023-02-11T09:26:58.718Z,17.67
2023-02-11T09:29:28.391Z,13.20
2023-02-11T09:31:58.130Z,14.70
2023-02-11T09:34:29.073Z,15.07
2023-02-11T09:36:58.760Z,12.60
2023-02-11T09:39:29.176Z,14.50
2023-02-11T09:42:32.708Z,18.80
2023-02-11T09:45:03.690Z,18.27
2023-02-11T09:47:45.878Z,14.18
2023-02-11T09:50:25.097Z,17.35
2023-02-11T09:53:22.596Z,18.00
2023-02-11T09:55:57.397Z,14.88
2023-02-11T09:58:47.230Z,17.35
2023-02-11T10:01:44.467Z,16.23
2023-02-11T10:04:46.995Z,17.55
2023-02-11T10:07:52.156Z,15.80
2023-02-11T10:10:42.994Z,18.02
2023-02-11T10:13:51.709Z,18.02
2023-02-11T10:17:00.622Z,16.52
2023-02-11T10:19:53.900Z,23.75
2023-02-11T10:22:48.998Z,18.00
2023-02-11T10:25:45.516Z,20.05
2023-02-11T10:28:24.115Z,19.33
2023-02-11T10:31:05.695Z,20.17
2023-02-11T10:34:03.673Z,17.88
2023-02-11T10:36:37.135Z,18.60
2023-02-11T10:39:28.578Z,16.08
2023-02-11T10:42:08.015Z,23.08
2023-02-11T10:44:59.155Z,21.65
2023-02-11T10:47:34.485Z,19.50
2023-02-11T10:50:19.126Z,20.85
2023-02-11T10:52:48.846Z,25.48
2023-02-11T10:55:23.368Z,37.45
2023-02-11T10:57:57.693Z,36.85
2023-02-11T11:00:53.071Z,39.90
2023-02-11T11:03:44.091Z,34.45
2023-02-11T11:06:14.240Z,33.53
2023-02-11T11:08:50.745Z,29.80
2023-02-11T11:11:26.473Z,34.83
2023-02-11T11:14:02.321Z,33.83
2023-02-11T11:16:37.125Z,27.60
2023-02-11T11:19:25.657Z,29.33
2023-02-11T11:21:57.333Z,27.70
2023-02-11T11:24:42.302Z,24.65
2023-02-11T11:27:26.561Z,39.55
2023-02-11T11:29:58.396Z,46.25
2023-02-11T11:32:34.140Z,51.20
2023-02-11T11:35:07.761Z,66.68
2023-02-11T11:37:41.056Z,71.75
2023-02-11T11:40:31.550Z,45.63
2023-02-11T11:43:23.428Z,55.17
2023-02-11T11:45:59.008Z,26.63
2023-02-11T11:48:39.423Z,34.35
2023-02-11T11:51:13.314Z,45.13
2023-02-11T11:54:00.951Z,44.03
2023-02-11T11:59:08.072Z,42.33
2023-02-11T12:02:16.834Z,55.58
2023-02-11T12:05:12.813Z,49.75
2023-02-11T12:07:58.715Z,46.20
2023-02-11T12:10:52.133Z,41.90
2023-02-11T12:13:52.160Z,33.10
2023-02-11T12:16:56.144Z,34.42
2023-02-11T12:19:58.192Z,41.67
2023-02-11T12:23:07.049Z,32.83
2023-02-11T12:25:57.529Z,41.47
2023-02-11T12:28:51.838Z,48.85
2023-02-11T12:32:00.990Z,45.15
2023-02-11T12:34:55.402Z,40.45
2023-02-11T12:38:00.730Z,43.53
2023-02-11T12:41:11.914Z,41.58
2023-02-11T12:43:44.455Z,49.40
2023-02-11T12:46:36.777Z,36.63
2023-02-11T12:49:32.394Z,46.05
2023-02-11T12:52:29.833Z,44.35
2023-02-11T12:57:43.596Z,46.72
2023-02-11T13:00:23.798Z,45.13
2023-02-11T13:03:24.199Z,47.28
2023-02-11T13:06:04.157Z,61.75
2023-02-11T13:08:39.418Z,61.80
2023-02-11T13:11:17.921Z,60.17
2023-02-11T13:14:00.476Z,58.83
2023-02-11T13:16:44.976Z,60.33
2023-02-11T13:19:40.860Z,59.00
2023-02-11T13:22:21.454Z,56.83
2023-02-11T13:25:07.836Z,50.08
2023-02-11T13:28:02.059Z,48.75
2023-02-11T13:30:37.944Z,47.08
2023-02-11T13:33:19.966Z,59.25
2023-02-11T13:36:14.138Z,47.83
2023-02-11T13:38:53.566Z,46.83
2023-02-11T13:41:37.440Z,47.72
2023-02-11T13:44:28.548Z,50.47
2023-02-11T13:47:09.201Z,45.95
2023-02-11T13:49:43.175Z,40.38
2023-02-11T13:52:40.130Z,41.75
2023-02-11T13:55:23.361Z,47.28
2023-02-11T13:58:32.136Z,41.17
2023-02-11T14:01:01.972Z,64.72
2023-02-11T14:03:55.843Z,177.73
2023-02-11T14:06:48.573Z,151.75
2023-02-11T14:09:39.564Z,215.20
2023-02-11T14:12:37.950Z,98.30
2023-02-11T14:15:27.488Z,54.60
2023-02-11T14:17:59.199Z,45.25
2023-02-11T14:20:41.470Z,43.72
2023-02-11T14:23:24.603Z,67.50
2023-02-11T14:26:23.658Z,48.33
2023-02-11T14:29:21.858Z,55.58
2023-02-11T14:32:13.423Z,51.45
2023-02-11T14:35:09.996Z,59.08
2023-02-11T14:38:06.717Z,54.90
2023-02-11T14:40:45.978Z,109.50
2023-02-11T14:43:21.889Z,57.47
2023-02-11T14:45:56.342Z,71.75
2023-02-11T14:48:39.100Z,76.68
2023-02-11T14:51:22.968Z,76.10
2023-02-11T14:53:55.449Z,75.53
2023-02-11T14:56:28.800Z,79.35
2023-02-11T14:58:59.410Z,73.20
2023-02-11T15:01:39.154Z,73.82
2023-02-11T15:04:24.061Z,66.60
2023-02-11T15:06:54.043Z,65.13
2023-02-11T15:09:31.000Z,65.97
2023-02-11T15:12:01.300Z,78.05
2023-02-11T15:14:34.769Z,63.08
2023-02-11T15:17:09.280Z,68.95
2023-02-11T15:19:42.739Z,59.95
2023-02-11T15:22:40.912Z,73.07
2023-02-11T15:25:19.015Z,63.15
2023-02-11T15:27:58.325Z,67.95
2023-02-11T15:30:35.701Z,56.92
2023-02-11T15:33:08.563Z,68.25
2023-02-11T15:35:42.729Z,58.75
2023-02-11T15:38:15.052Z,68.18
2023-02-11T15:40:56.455Z,65.10
2023-02-11T15:43:26.398Z,68.60
2023-02-11T15:46:02.368Z,60.17
2023-02-11T15:48:39.392Z,59.28
2023-02-11T15:51:37.160Z,58.55
2023-02-11T15:54:19.247Z,59.45
2023-02-11T15:56:52.643Z,70.78
2023-02-11T15:59:37.554Z,63.03
2023-02-11T16:02:21.782Z,72.55
2023-02-11T16:04:59.363Z,67.15
2023-02-11T16:07:51.257Z,60.20
2023-02-11T16:10:37.863Z,68.82
2023-02-11T16:13:26.086Z,60.53
2023-02-11T16:16:05.621Z,60.90
2023-02-11T16:18:52.145Z,53.70
2023-02-11T16:21:47.000Z,61.40
2023-02-11T16:24:33.658Z,61.22
2023-02-11T16:27:06.501Z,58.95
2023-02-11T16:29:39.490Z,59.75
2023-02-11T16:32:19.099Z,73.13
2023-02-11T16:34:49.246Z,55.50
2023-02-11T16:37:19.269Z,55.58
2023-02-11T16:39:49.061Z,51.80
2023-02-11T16:42:18.742Z,53.65
2023-02-11T16:44:48.338Z,69.25
2023-02-11T16:47:30.457Z,60.00
2023-02-11T16:50:00.731Z,61.92
2023-02-11T16:52:33.124Z,70.30
2023-02-11T16:55:02.794Z,52.72
2023-02-11T16:57:33.320Z,61.65
2023-02-11T17:00:03.043Z,63.10
2023-02-11T17:02:35.659Z,68.03
2023-02-11T17:05:08.798Z,65.20
2023-02-11T17:07:38.472Z,54.97
2023-02-11T17:10:17.063Z,72.97
2023-02-11T17:12:46.936Z,69.32
2023-02-11T17:15:17.023Z,62.05
2023-02-11T17:17:47.588Z,64.30
2023-02-11T17:20:18.485Z,72.25
2023-02-11T17:22:48.130Z,71.13
2023-02-11T17:25:17.956Z,79.40
2023-02-11T17:27:47.866Z,72.28
2023-02-11T17:30:17.824Z,66.10
2023-02-11T17:32:48.955Z,65.20
2023-02-11T17:35:19.168Z,59.92
2023-02-11T17:37:49.087Z,59.53
2023-02-11T17:40:19.257Z,61.20
2023-02-11T17:42:48.894Z,62.40
2023-02-11T17:45:21.111Z,61.85
2023-02-11T17:47:51.985Z,73.35
2023-02-11T17:50:21.758Z,61.25
2023-02-11T17:52:51.416Z,65.88
2023-02-11T17:55:21.156Z,69.43
2023-02-11T17:57:50.786Z,61.65
2023-02-11T18:00:20.979Z,74.43
2023-02-11T18:02:50.681Z,61.20
2023-02-11T18:05:20.349Z,59.25
2023-02-11T18:07:50.392Z,63.03
2023-02-11T18:10:20.285Z,60.05
2023-02-11T18:12:49.921Z,60.90
2023-02-11T18:15:19.696Z,61.55
2023-02-11T18:17:49.457Z,65.40
2023-02-11T18:20:19.727Z,64.63
2023-02-11T18:22:49.338Z,71.65
2023-02-11T18:25:20.449Z,66.72
2023-02-11T18:27:50.139Z,64.30
2023-02-11T18:30:21.440Z,57.35
2023-02-11T18:32:55.184Z,52.38
2023-02-11T18:35:25.311Z,59.13
2023-02-11T18:37:55.716Z,72.95
2023-02-11T18:40:25.356Z,62.70
2023-02-11T18:42:55.079Z,71.38
2023-02-11T18:45:25.635Z,55.88
2023-02-11T18:47:55.190Z,61.95
2023-02-11T18:50:25.201Z,71.43
2023-02-11T18:52:54.813Z,65.50
2023-02-11T18:55:27.388Z,67.28
2023-02-11T18:57:57.119Z,68.30
2023-02-11T19:00:26.962Z,67.22
2023-02-11T19:02:56.801Z,65.35
2023-02-11T19:05:30.307Z,69.15
2023-02-11T19:07:59.877Z,77.50
2023-02-11T19:10:30.305Z,70.40
2023-02-11T19:13:01.020Z,58.15
2023-02-11T19:15:30.647Z,62.10
2023-02-11T19:18:00.252Z,60.63
2023-02-11T19:20:34.982Z,56.65
2023-02-11T19:23:05.040Z,55.55
2023-02-11T19:25:35.082Z,56.45
2023-02-11T19:28:05.229Z,60.97
2023-02-11T19:30:34.913Z,48.13
2023-02-11T19:33:04.580Z,55.00
2023-02-11T19:35:39.791Z,58.45
2023-02-11T19:38:09.714Z,50.53
2023-02-11T19:40:39.342Z,47.60
2023-02-11T19:43:09.037Z,50.42
2023-02-11T19:45:40.053Z,52.22
2023-02-11T19:48:09.671Z,59.20
2023-02-11T19:50:39.366Z,45.58
2023-02-11T19:53:09.142Z,48.88
2023-02-11T19:55:38.957Z,44.63
2023-02-11T19:58:08.775Z,49.05
2023-02-11T20:00:38.474Z,54.70
2023-02-11T20:03:08.595Z,50.28
2023-02-11T20:05:43.942Z,49.30
2023-02-11T20:08:13.595Z,46.35
2023-02-11T20:10:43.299Z,41.58
2023-02-11T20:13:12.989Z,57.90
2023-02-11T20:15:42.709Z,53.45
2023-02-11T20:18:12.295Z,44.35
2023-02-11T20:20:42.676Z,55.03
2023-02-11T20:23:12.310Z,44.20
2023-02-11T20:25:42.392Z,47.30
2023-02-11T20:28:12.060Z,47.50
2023-02-11T20:30:41.872Z,42.08
2023-02-11T20:33:11.511Z,43.60
2023-02-11T20:35:41.025Z,40.40
2023-02-11T20:38:10.941Z,46.50
2023-02-11T20:40:40.590Z,45.03
2023-02-11T20:43:10.932Z,42.88
2023-02-11T20:45:40.730Z,41.70
2023-02-11T20:48:10.284Z,42.95
2023-02-11T20:50:40.496Z,49.95
2023-02-11T20:53:11.925Z,52.13
2023-02-11T20:55:42.144Z,48.30
2023-02-11T20:58:11.741Z,49.38
2023-02-11T21:00:41.559Z,45.15
2023-02-11T21:03:11.212Z,44.70
2023-02-11T21:05:40.895Z,42.15
2023-02-11T21:08:10.591Z,45.85
2023-02-11T21:10:40.275Z,47.67
2023-02-11T21:13:09.934Z,44.45
2023-02-11T21:15:39.655Z,46.92
2023-02-11T21:18:09.319Z,50.83
2023-02-11T21:20:38.959Z,45.20
2023-02-11T21:23:09.178Z,45.17
2023-02-11T21:25:38.809Z,47.97
2023-02-11T21:28:08.618Z,46.70
2023-02-11T21:30:41.523Z,47.72
2023-02-11T21:33:11.301Z,41.92
2023-02-11T21:35:41.046Z,44.80
2023-02-11T21:38:10.760Z,49.78
2023-02-11T21:40:41.257Z,41.30
2023-02-11T21:43:10.897Z,40.50
2023-02-11T21:45:46.942Z,38.03
2023-02-11T21:48:17.359Z,42.88
2023-02-11T21:50:49.554Z,43.20
2023-02-11T21:53:19.280Z,42.22
2023-02-11T21:55:48.959Z,40.15
2023-02-11T21:58:18.974Z,40.30
2023-02-11T22:00:48.606Z,46.13
2023-02-11T22:03:18.205Z,46.03
2023-02-11T22:05:47.884Z,38.53
2023-02-11T22:08:19.856Z,45.97
2023-02-11T22:10:49.860Z,42.20
2023-02-11T22:13:19.453Z,43.28
2023-02-11T22:16:03.003Z,44.33
2023-02-11T22:18:32.900Z,42.92
2023-02-11T22:21:11.642Z,43.95
2023-02-11T22:23:42.793Z,43.03
2023-02-11T22:26:16.440Z,39.40
2023-02-11T22:28:46.645Z,35.50
2023-02-11T22:31:20.754Z,34.97
2023-02-11T22:33:51.152Z,39.78
2023-02-11T22:36:28.180Z,36.00
2023-02-11T22:38:58.417Z,35.22
2023-02-11T22:41:28.408Z,35.25
2023-02-11T22:43:57.981Z,35.50
2023-02-11T22:46:27.818Z,37.83
2023-02-11T22:48:59.492Z,38.08
2023-02-11T22:51:31.274Z,39.10
2023-02-11T22:54:06.914Z,34.85
2023-02-11T22:56:37.598Z,35.03
2023-02-11T22:59:09.918Z,42.80
2023-02-11T23:01:39.861Z,41.50
2023-02-11T23:04:11.259Z,38.28
2023-02-11T23:06:41.090Z,41.63
2023-02-11T23:09:13.915Z,45.47
2023-02-11T23:11:43.995Z,38.97
2023-02-11T23:14:13.863Z,44.15
2023-02-11T23:16:43.578Z,38.30
2023-02-11T23:19:14.238Z,47.17
2023-02-11T23:21:43.864Z,43.30
2023-02-11T23:24:16.905Z,41.70
2023-02-11T23:26:47.099Z,38.65
2023-02-11T23:29:16.775Z,40.03
2023-02-11T23:31:48.193Z,42.90
2023-02-11T23:34:26.818Z,45.90
2023-02-11T23:36:57.575Z,41.15
2023-02-11T23:39:27.414Z,42.00
2023-02-11T23:42:00.638Z,41.35
2023-02-11T23:44:30.705Z,43.45
2023-02-11T23:47:00.269Z,43.60
2023-02-11T23:49:30.012Z,43.88
2023-02-11T23:51:59.667Z,43.55
2023-02-11T23:54:29.334Z,42.22
2023-02-11T23:56:59.054Z,40.47
2023-02-11T23:59:28.658Z,45.45
